sensor_id;sensor_type;location;lat;lon;timestamp;P1;durP1;ratioP1;P2;durP2;ratioP2
20861;SDS011;10591;52.532;13.348;2023-06-19T00:01:11;33.05;;;14.60;;
20861;SDS011;10591;52.532;13.348;2023-06-19T00:03:41;34.58;;;14.40;;
20861;SDS011;10591;52.532;13.348;2023-06-19T00:06:12;32.40;;;14.85;;
20861;SDS011;10591;52.532;13.348;2023-06-19T00:08:42;23.32;;;13.58;;
20861;SDS011;10591;52.532;13.348;2023-06-19T00:11:15;28.83;;;14.15;;
20861;SDS011;10591;52.532;13.348;2023-06-19T00:13:47;24.82;;;14.03;;
20861;SDS011;10591;52.532;13.348;2023-06-19T00:16:19;28.98;;;14.45;;
20861;SDS011;10591;52.532;13.348;2023-06-19T00:18:50;20.57;;;14.35;;
20861;SDS011;10591;52.532;13.348;2023-06-19T00:21:23;21.55;;;13.68;;
20861;SDS011;10591;52.532;13.348;2023-06-19T00:23:57;34.80;;;15.05;;
20861;SDS011;10591;52.532;13.348;2023-06-19T00:26:28;22.30;;;14.18;;
20861;SDS011;10591;52.532;13.348;2023-06-19T00:29:00;35.10;;;15.40;;
20861;SDS011;10591;52.532;13.348;2023-06-19T00:31:31;31.12;;;14.58;;
20861;SDS011;10591;52.532;13.348;2023-06-19T00:34:03;22.85;;;13.75;;
20861;SDS011;10591;52.532;13.348;2023-06-19T00:36:34;36.10;;;15.30;;
20861;SDS011;10591;52.532;13.348;2023-06-19T00:39:07;33.75;;;15.70;;
20861;SDS011;10591;52.532;13.348;2023-06-19T00:41:38;37.53;;;15.58;;
20861;SDS011;10591;52.532;13.348;2023-06-19T00:44:09;23.52;;;14.00;;
20861;SDS011;10591;52.532;13.348;2023-06-19T00:46:40;34.40;;;15.10;;
20861;SDS011;10591;52.532;13.348;2023-06-19T00:49:13;37.53;;;15.43;;
20861;SDS011;10591;52.532;13.348;2023-06-19T00:51:47;44.42;;;15.55;;
20861;SDS011;10591;52.532;13.348;2023-06-19T00:54:18;31.12;;;14.68;;
20861;SDS011;10591;52.532;13.348;2023-06-19T00:56:49;22.25;;;12.82;;
20861;SDS011;10591;52.532;13.348;2023-06-19T00:59:20;24.67;;;14.63;;
20861;SDS011;10591;52.532;13.348;2023-06-19T01:01:51;28.10;;;14.30;;
20861;SDS011;10591;52.532;13.348;2023-06-19T01:04:22;25.77;;;14.07;;
20861;SDS011;10591;52.532;13.348;2023-06-19T01:06:56;27.85;;;14.93;;
20861;SDS011;10591;52.532;13.348;2023-06-19T01:09:34;32.28;;;15.23;;
20861;SDS011;10591;52.532;13.348;2023-06-19T01:12:07;29.15;;;14.58;;
20861;SDS011;10591;52.532;13.348;2023-06-19T01:14:45;31.23;;;15.65;;
20861;SDS011;10591;52.532;13.348;2023-06-19T01:17:14;26.35;;;15.08;;
20861;SDS011;10591;52.532;13.348;2023-06-19T01:19:45;28.15;;;15.20;;
20861;SDS011;10591;52.532;13.348;2023-06-19T01:22:35;23.60;;;14.93;;
20861;SDS011;10591;52.532;13.348;2023-06-19T01:25:05;27.52;;;15.10;;
20861;SDS011;10591;52.532;13.348;2023-06-19T01:27:37;32.45;;;15.72;;
20861;SDS011;10591;52.532;13.348;2023-06-19T01:30:09;24.43;;;14.87;;
20861;SDS011;10591;52.532;13.348;2023-06-19T01:32:47;28.60;;;15.03;;
20861;SDS011;10591;52.532;13.348;2023-06-19T01:35:19;21.75;;;14.30;;
20861;SDS011;10591;52.532;13.348;2023-06-19T01:37:55;26.40;;;15.50;;
20861;SDS011;10591;52.532;13.348;2023-06-19T01:40:26;32.05;;;15.90;;
20861;SDS011;10591;52.532;13.348;2023-06-19T01:43:00;29.25;;;15.58;;
20861;SDS011;10591;52.532;13.348;2023-06-19T01:45:33;24.52;;;15.60;;
20861;SDS011;10591;52.532;13.348;2023-06-19T01:48:05;32.13;;;15.78;;
20861;SDS011;10591;52.532;13.348;2023-06-19T01:50:36;32.70;;;15.83;;
20861;SDS011;10591;52.532;13.348;2023-06-19T01:53:06;27.80;;;15.65;;
20861;SDS011;10591;52.532;13.348;2023-06-19T01:55:38;24.82;;;15.60;;
20861;SDS011;10591;52.532;13.348;2023-06-19T01:58:10;24.43;;;14.65;;
20861;SDS011;10591;52.532;13.348;2023-06-19T02:00:41;26.73;;;15.48;;
20861;SDS011;10591;52.532;13.348;2023-06-19T02:03:12;31.65;;;15.90;;
20861;SDS011;10591;52.532;13.348;2023-06-19T02:05:43;27.48;;;16.30;;
20861;SDS011;10591;52.532;13.348;2023-06-19T02:08:14;22.65;;;14.55;;
20861;SDS011;10591;52.532;13.348;2023-06-19T02:10:45;26.27;;;15.90;;
20861;SDS011;10591;52.532;13.348;2023-06-19T02:13:17;23.87;;;16.35;;
20861;SDS011;10591;52.532;13.348;2023-06-19T02:15:47;22.93;;;15.72;;
20861;SDS011;10591;52.532;13.348;2023-06-19T02:18:18;22.85;;;15.30;;
20861;SDS011;10591;52.532;13.348;2023-06-19T02:20:49;26.85;;;16.48;;
20861;SDS011;10591;52.532;13.348;2023-06-19T02:23:20;24.92;;;15.95;;
20861;SDS011;10591;52.532;13.348;2023-06-19T02:25:50;22.73;;;14.75;;
20861;SDS011;10591;52.532;13.348;2023-06-19T02:28:21;31.10;;;17.23;;
20861;SDS011;10591;52.532;13.348;2023-06-19T02:30:55;38.95;;;17.37;;
20861;SDS011;10591;52.532;13.348;2023-06-19T02:33:25;34.30;;;17.05;;
20861;SDS011;10591;52.532;13.348;2023-06-19T02:35:57;24.32;;;16.05;;
20861;SDS011;10591;52.532;13.348;2023-06-19T02:38:29;27.98;;;17.10;;
20861;SDS011;10591;52.532;13.348;2023-06-19T02:41:00;26.87;;;16.48;;
20861;SDS011;10591;52.532;13.348;2023-06-19T02:43:32;27.52;;;16.42;;
20861;SDS011;10591;52.532;13.348;2023-06-19T02:46:03;21.82;;;15.90;;
20861;SDS011;10591;52.532;13.348;2023-06-19T02:48:33;23.30;;;16.45;;
20861;SDS011;10591;52.532;13.348;2023-06-19T02:51:05;21.50;;;16.12;;
20861;SDS011;10591;52.532;13.348;2023-06-19T02:53:37;24.05;;;16.35;;
20861;SDS011;10591;52.532;13.348;2023-06-19T02:56:11;25.70;;;17.00;;
20861;SDS011;10591;52.532;13.348;2023-06-19T02:58:42;25.43;;;16.57;;
20861;SDS011;10591;52.532;13.348;2023-06-19T03:01:14;25.20;;;16.55;;
20861;SDS011;10591;52.532;13.348;2023-06-19T03:03:46;28.70;;;17.02;;
20861;SDS011;10591;52.532;13.348;2023-06-19T03:06:16;37.90;;;17.07;;
20861;SDS011;10591;52.532;13.348;2023-06-19T03:08:47;32.53;;;17.30;;
20861;SDS011;10591;52.532;13.348;2023-06-19T03:11:18;44.67;;;18.30;;
20861;SDS011;10591;52.532;13.348;2023-06-19T03:13:52;25.88;;;17.02;;
20861;SDS011;10591;52.532;13.348;2023-06-19T03:16:24;32.30;;;17.77;;
20861;SDS011;10591;52.532;13.348;2023-06-19T03:18:54;26.60;;;16.87;;
20861;SDS011;10591;52.532;13.348;2023-06-19T03:21:25;28.70;;;16.60;;
20861;SDS011;10591;52.532;13.348;2023-06-19T03:23:56;37.67;;;18.40;;
20861;SDS011;10591;52.532;13.348;2023-06-19T03:26:26;24.65;;;16.45;;
20861;SDS011;10591;52.532;13.348;2023-06-19T03:28:57;23.55;;;16.37;;
20861;SDS011;10591;52.532;13.348;2023-06-19T03:31:28;29.10;;;17.52;;
20861;SDS011;10591;52.532;13.348;2023-06-19T03:34:01;30.00;;;16.97;;
20861;SDS011;10591;52.532;13.348;2023-06-19T03:36:34;32.67;;;17.20;;
20861;SDS011;10591;52.532;13.348;2023-06-19T03:39:07;30.80;;;16.95;;
20861;SDS011;10591;52.532;13.348;2023-06-19T03:41:39;25.02;;;16.30;;
20861;SDS011;10591;52.532;13.348;2023-06-19T03:44:09;27.90;;;18.05;;
20861;SDS011;10591;52.532;13.348;2023-06-19T03:46:40;27.52;;;16.30;;
20861;SDS011;10591;52.532;13.348;2023-06-19T03:49:12;24.70;;;16.97;;
20861;SDS011;10591;52.532;13.348;2023-06-19T03:51:44;32.10;;;18.35;;
20861;SDS011;10591;52.532;13.348;2023-06-19T03:54:15;36.28;;;17.75;;
20861;SDS011;10591;52.532;13.348;2023-06-19T03:56:45;26.10;;;16.32;;
20861;SDS011;10591;52.532;13.348;2023-06-19T03:59:16;28.52;;;17.67;;
20861;SDS011;10591;52.532;13.348;2023-06-19T04:01:48;29.15;;;16.62;;
20861;SDS011;10591;52.532;13.348;2023-06-19T04:04:18;26.70;;;16.80;;
20861;SDS011;10591;52.532;13.348;2023-06-19T04:06:49;25.92;;;15.68;;
20861;SDS011;10591;52.532;13.348;2023-06-19T04:09:21;25.77;;;16.62;;
20861;SDS011;10591;52.532;13.348;2023-06-19T04:11:55;22.37;;;16.12;;
20861;SDS011;10591;52.532;13.348;2023-06-19T04:14:26;19.32;;;15.85;;
20861;SDS011;10591;52.532;13.348;2023-06-19T04:16:57;24.40;;;16.30;;
20861;SDS011;10591;52.532;13.348;2023-06-19T04:19:28;26.73;;;16.20;;
20861;SDS011;10591;52.532;13.348;2023-06-19T04:21:59;34.55;;;17.00;;
20861;SDS011;10591;52.532;13.348;2023-06-19T04:24:34;27.45;;;16.97;;
20861;SDS011;10591;52.532;13.348;2023-06-19T04:27:07;28.65;;;17.07;;
20861;SDS011;10591;52.532;13.348;2023-06-19T04:29:38;31.37;;;16.82;;
20861;SDS011;10591;52.532;13.348;2023-06-19T04:32:09;27.30;;;16.73;;
20861;SDS011;10591;52.532;13.348;2023-06-19T04:34:41;27.52;;;17.27;;
20861;SDS011;10591;52.532;13.348;2023-06-19T04:37:14;31.37;;;19.02;;
20861;SDS011;10591;52.532;13.348;2023-06-19T04:39:47;34.13;;;17.05;;
20861;SDS011;10591;52.532;13.348;2023-06-19T04:42:18;26.02;;;16.97;;
20861;SDS011;10591;52.532;13.348;2023-06-19T04:44:51;26.57;;;17.05;;
20861;SDS011;10591;52.532;13.348;2023-06-19T04:47:22;24.63;;;16.52;;
20861;SDS011;10591;52.532;13.348;2023-06-19T04:49:54;25.15;;;17.27;;
20861;SDS011;10591;52.532;13.348;2023-06-19T04:52:27;27.77;;;16.97;;
20861;SDS011;10591;52.532;13.348;2023-06-19T04:54:58;27.48;;;16.67;;
20861;SDS011;10591;52.532;13.348;2023-06-19T04:57:29;24.70;;;16.75;;
20861;SDS011;10591;52.532;13.348;2023-06-19T05:00:00;22.25;;;16.15;;
20861;SDS011;10591;52.532;13.348;2023-06-19T05:02:35;23.52;;;16.93;;
20861;SDS011;10591;52.532;13.348;2023-06-19T05:05:07;24.30;;;17.23;;
20861;SDS011;10591;52.532;13.348;2023-06-19T05:07:39;26.42;;;17.35;;
20861;SDS011;10591;52.532;13.348;2023-06-19T05:10:11;22.70;;;16.77;;
20861;SDS011;10591;52.532;13.348;2023-06-19T05:12:41;22.50;;;16.77;;
20861;SDS011;10591;52.532;13.348;2023-06-19T05:15:13;27.27;;;17.85;;
20861;SDS011;10591;52.532;13.348;2023-06-19T05:17:47;24.70;;;17.52;;
20861;SDS011;10591;52.532;13.348;2023-06-19T05:20:21;29.18;;;18.23;;
20861;SDS011;10591;52.532;13.348;2023-06-19T05:22:56;21.77;;;16.57;;
20861;SDS011;10591;52.532;13.348;2023-06-19T05:25:27;24.05;;;17.60;;
20861;SDS011;10591;52.532;13.348;2023-06-19T05:27:58;43.08;;;19.10;;
20861;SDS011;10591;52.532;13.348;2023-06-19T05:30:30;37.10;;;19.07;;
20861;SDS011;10591;52.532;13.348;2023-06-19T05:33:01;32.05;;;19.00;;
20861;SDS011;10591;52.532;13.348;2023-06-19T05:35:33;22.15;;;16.75;;
20861;SDS011;10591;52.532;13.348;2023-06-19T05:38:06;25.82;;;18.32;;
20861;SDS011;10591;52.532;13.348;2023-06-19T05:40:37;32.15;;;18.27;;
20861;SDS011;10591;52.532;13.348;2023-06-19T05:43:08;21.30;;;16.97;;
20861;SDS011;10591;52.532;13.348;2023-06-19T05:45:39;28.35;;;18.05;;
20861;SDS011;10591;52.532;13.348;2023-06-19T05:48:12;27.52;;;17.57;;
20861;SDS011;10591;52.532;13.348;2023-06-19T05:50:44;23.85;;;17.90;;
20861;SDS011;10591;52.532;13.348;2023-06-19T05:53:15;25.23;;;17.20;;
20861;SDS011;10591;52.532;13.348;2023-06-19T05:55:47;19.73;;;17.62;;
20861;SDS011;10591;52.532;13.348;2023-06-19T05:58:19;22.05;;;19.65;;
20861;SDS011;10591;52.532;13.348;2023-06-19T06:00:51;27.45;;;19.40;;
20861;SDS011;10591;52.532;13.348;2023-06-19T06:03:24;19.55;;;17.60;;
20861;SDS011;10591;52.532;13.348;2023-06-19T06:05:55;18.32;;;16.62;;
20861;SDS011;10591;52.532;13.348;2023-06-19T06:08:33;19.70;;;17.82;;
20861;SDS011;10591;52.532;13.348;2023-06-19T06:11:02;18.67;;;17.02;;
20861;SDS011;10591;52.532;13.348;2023-06-19T06:13:33;18.82;;;17.12;;
20861;SDS011;10591;52.532;13.348;2023-06-19T06:16:04;18.98;;;17.17;;
20861;SDS011;10591;52.532;13.348;2023-06-19T06:18:36;18.25;;;16.75;;
20861;SDS011;10591;52.532;13.348;2023-06-19T06:21:10;18.77;;;16.95;;
20861;SDS011;10591;52.532;13.348;2023-06-19T06:23:43;17.92;;;16.15;;
20861;SDS011;10591;52.532;13.348;2023-06-19T06:26:14;18.35;;;16.60;;
20861;SDS011;10591;52.532;13.348;2023-06-19T06:28:45;17.65;;;15.95;;
20861;SDS011;10591;52.532;13.348;2023-06-19T06:31:15;18.27;;;16.60;;
20861;SDS011;10591;52.532;13.348;2023-06-19T06:33:48;19.40;;;17.67;;
20861;SDS011;10591;52.532;13.348;2023-06-19T06:36:19;19.12;;;17.25;;
20861;SDS011;10591;52.532;13.348;2023-06-19T06:38:51;18.90;;;16.95;;
20861;SDS011;10591;52.532;13.348;2023-06-19T06:41:22;19.00;;;17.27;;
20861;SDS011;10591;52.532;13.348;2023-06-19T06:43:54;20.48;;;18.32;;
20861;SDS011;10591;52.532;13.348;2023-06-19T06:46:24;18.80;;;16.82;;
20861;SDS011;10591;52.532;13.348;2023-06-19T06:48:55;18.10;;;16.57;;
20861;SDS011;10591;52.532;13.348;2023-06-19T06:51:26;20.97;;;18.77;;
20861;SDS011;10591;52.532;13.348;2023-06-19T06:53:56;20.20;;;18.20;;
20861;SDS011;10591;52.532;13.348;2023-06-19T06:56:28;18.55;;;16.90;;
20861;SDS011;10591;52.532;13.348;2023-06-19T06:59:03;23.70;;;19.62;;
20861;SDS011;10591;52.532;13.348;2023-06-19T07:01:38;19.90;;;17.95;;
20861;SDS011;10591;52.532;13.348;2023-06-19T07:04:09;22.27;;;17.75;;
20861;SDS011;10591;52.532;13.348;2023-06-19T07:06:39;18.40;;;16.42;;
20861;SDS011;10591;52.532;13.348;2023-06-19T07:09:11;18.27;;;16.60;;
20861;SDS011;10591;52.532;13.348;2023-06-19T07:11:42;18.70;;;17.07;;
20861;SDS011;10591;52.532;13.348;2023-06-19T07:14:13;19.52;;;17.65;;
20861;SDS011;10591;52.532;13.348;2023-06-19T07:16:46;19.35;;;17.60;;
20861;SDS011;10591;52.532;13.348;2023-06-19T07:19:18;19.27;;;17.55;;
20861;SDS011;10591;52.532;13.348;2023-06-19T07:21:50;18.85;;;17.23;;
20861;SDS011;10591;52.532;13.348;2023-06-19T07:24:22;19.05;;;17.40;;
20861;SDS011;10591;52.532;13.348;2023-06-19T07:26:53;20.68;;;18.67;;
20861;SDS011;10591;52.532;13.348;2023-06-19T07:29:25;18.60;;;16.90;;
20861;SDS011;10591;52.532;13.348;2023-06-19T07:31:56;18.95;;;17.25;;
20861;SDS011;10591;52.532;13.348;2023-06-19T07:34:27;18.62;;;16.73;;
20861;SDS011;10591;52.532;13.348;2023-06-19T07:39:38;17.80;;;16.07;;
20861;SDS011;10591;52.532;13.348;2023-06-19T07:42:08;19.27;;;17.60;;
20861;SDS011;10591;52.532;13.348;2023-06-19T07:44:40;18.82;;;17.00;;
20861;SDS011;10591;52.532;13.348;2023-06-19T07:47:11;17.20;;;15.70;;
20861;SDS011;10591;52.532;13.348;2023-06-19T07:49:43;17.77;;;15.93;;
20861;SDS011;10591;52.532;13.348;2023-06-19T07:52:15;17.32;;;15.72;;
20861;SDS011;10591;52.532;13.348;2023-06-19T07:54:56;17.45;;;15.83;;
20861;SDS011;10591;52.532;13.348;2023-06-19T07:57:28;17.45;;;15.68;;
20861;SDS011;10591;52.532;13.348;2023-06-19T07:59:58;17.10;;;15.60;;
20861;SDS011;10591;52.532;13.348;2023-06-19T08:02:31;18.42;;;16.77;;
20861;SDS011;10591;52.532;13.348;2023-06-19T08:05:02;17.45;;;15.95;;
20861;SDS011;10591;52.532;13.348;2023-06-19T08:07:34;17.17;;;15.38;;
20861;SDS011;10591;52.532;13.348;2023-06-19T08:10:05;16.73;;;15.32;;
20861;SDS011;10591;52.532;13.348;2023-06-19T08:12:38;16.90;;;15.38;;
20861;SDS011;10591;52.532;13.348;2023-06-19T08:15:10;17.30;;;15.70;;
20861;SDS011;10591;52.532;13.348;2023-06-19T08:17:44;16.60;;;15.00;;
20861;SDS011;10591;52.532;13.348;2023-06-19T08:20:15;16.07;;;14.68;;
20861;SDS011;10591;52.532;13.348;2023-06-19T08:22:46;16.75;;;14.93;;
20861;SDS011;10591;52.532;13.348;2023-06-19T08:25:18;16.05;;;14.55;;
20861;SDS011;10591;52.532;13.348;2023-06-19T08:27:50;16.87;;;15.38;;
20861;SDS011;10591;52.532;13.348;2023-06-19T08:30:22;15.45;;;14.05;;
20861;SDS011;10591;52.532;13.348;2023-06-19T08:32:54;17.77;;;16.20;;
20861;SDS011;10591;52.532;13.348;2023-06-19T08:35:24;17.30;;;15.58;;
20861;SDS011;10591;52.532;13.348;2023-06-19T08:37:55;17.73;;;15.95;;
20861;SDS011;10591;52.532;13.348;2023-06-19T08:40:25;17.62;;;15.98;;
20861;SDS011;10591;52.532;13.348;2023-06-19T08:42:56;18.73;;;16.45;;
20861;SDS011;10591;52.532;13.348;2023-06-19T08:45:27;16.60;;;14.98;;
20861;SDS011;10591;52.532;13.348;2023-06-19T08:48:00;17.45;;;15.88;;
20861;SDS011;10591;52.532;13.348;2023-06-19T08:50:36;17.35;;;15.80;;
20861;SDS011;10591;52.532;13.348;2023-06-19T08:53:09;18.25;;;16.45;;
20861;SDS011;10591;52.532;13.348;2023-06-19T08:55:42;18.57;;;16.75;;
20861;SDS011;10591;52.532;13.348;2023-06-19T08:58:19;17.60;;;15.65;;
20861;SDS011;10591;52.532;13.348;2023-06-19T09:00:47;18.20;;;16.35;;
20861;SDS011;10591;52.532;13.348;2023-06-19T09:03:19;18.15;;;16.48;;
20861;SDS011;10591;52.532;13.348;2023-06-19T09:05:51;16.75;;;15.15;;
20861;SDS011;10591;52.532;13.348;2023-06-19T09:08:22;17.77;;;16.17;;
20861;SDS011;10591;52.532;13.348;2023-06-19T09:11:02;16.80;;;15.20;;
20861;SDS011;10591;52.532;13.348;2023-06-19T09:13:35;17.82;;;16.23;;
20861;SDS011;10591;52.532;13.348;2023-06-19T09:16:06;17.60;;;15.98;;
20861;SDS011;10591;52.532;13.348;2023-06-19T09:18:46;17.87;;;16.17;;
20861;SDS011;10591;52.532;13.348;2023-06-19T09:21:21;17.35;;;15.85;;
20861;SDS011;10591;52.532;13.348;2023-06-19T09:23:52;17.30;;;15.65;;
20861;SDS011;10591;52.532;13.348;2023-06-19T09:26:25;17.25;;;15.40;;
20861;SDS011;10591;52.532;13.348;2023-06-19T09:28:56;17.25;;;15.80;;
20861;SDS011;10591;52.532;13.348;2023-06-19T09:31:32;16.50;;;14.90;;
20861;SDS011;10591;52.532;13.348;2023-06-19T09:34:03;18.67;;;16.10;;
20861;SDS011;10591;52.532;13.348;2023-06-19T09:36:35;16.45;;;15.05;;
20861;SDS011;10591;52.532;13.348;2023-06-19T09:39:06;17.35;;;15.80;;
20861;SDS011;10591;52.532;13.348;2023-06-19T09:41:38;16.97;;;15.38;;
20861;SDS011;10591;52.532;13.348;2023-06-19T09:44:10;17.32;;;15.80;;
20861;SDS011;10591;52.532;13.348;2023-06-19T09:46:42;17.90;;;16.17;;
20861;SDS011;10591;52.532;13.348;2023-06-19T09:49:15;18.82;;;15.05;;
20861;SDS011;10591;52.532;13.348;2023-06-19T09:51:47;17.90;;;16.23;;
20861;SDS011;10591;52.532;13.348;2023-06-19T09:54:19;16.90;;;15.38;;
20861;SDS011;10591;52.532;13.348;2023-06-19T09:56:52;17.32;;;15.55;;
20861;SDS011;10591;52.532;13.348;2023-06-19T09:59:25;18.45;;;16.65;;
20861;SDS011;10591;52.532;13.348;2023-06-19T10:01:56;19.67;;;17.07;;
20861;SDS011;10591;52.532;13.348;2023-06-19T10:04:30;18.50;;;16.80;;
20861;SDS011;10591;52.532;13.348;2023-06-19T10:07:03;18.37;;;16.77;;
20861;SDS011;10591;52.532;13.348;2023-06-19T10:09:35;18.25;;;16.42;;
20861;SDS011;10591;52.532;13.348;2023-06-19T10:12:11;18.42;;;16.67;;
20861;SDS011;10591;52.532;13.348;2023-06-19T10:14:46;17.95;;;16.32;;
20861;SDS011;10591;52.532;13.348;2023-06-19T10:17:20;18.77;;;17.02;;
20861;SDS011;10591;52.532;13.348;2023-06-19T10:19:51;19.57;;;17.67;;
20861;SDS011;10591;52.532;13.348;2023-06-19T10:22:23;17.87;;;16.27;;
20861;SDS011;10591;52.532;13.348;2023-06-19T10:24:55;18.80;;;17.20;;
20861;SDS011;10591;52.532;13.348;2023-06-19T10:27:26;17.90;;;16.27;;
20861;SDS011;10591;52.532;13.348;2023-06-19T10:29:57;17.55;;;15.90;;
20861;SDS011;10591;52.532;13.348;2023-06-19T10:32:29;18.02;;;16.40;;
20861;SDS011;10591;52.532;13.348;2023-06-19T10:35:00;19.10;;;17.30;;
20861;SDS011;10591;52.532;13.348;2023-06-19T10:37:32;18.85;;;17.07;;
20861;SDS011;10591;52.532;13.348;2023-06-19T10:40:03;19.82;;;18.15;;
20861;SDS011;10591;52.532;13.348;2023-06-19T10:42:39;18.52;;;16.90;;
20861;SDS011;10591;52.532;13.348;2023-06-19T10:45:10;18.10;;;16.23;;
20861;SDS011;10591;52.532;13.348;2023-06-19T10:47:46;18.10;;;16.55;;
20861;SDS011;10591;52.532;13.348;2023-06-19T10:50:18;17.90;;;16.15;;
20861;SDS011;10591;52.532;13.348;2023-06-19T10:52:52;19.20;;;17.37;;
20861;SDS011;10591;52.532;13.348;2023-06-19T10:55:26;17.37;;;15.80;;
20861;SDS011;10591;52.532;13.348;2023-06-19T10:57:58;21.12;;;19.20;;
20861;SDS011;10591;52.532;13.348;2023-06-19T11:00:29;17.85;;;16.27;;
20861;SDS011;10591;52.532;13.348;2023-06-19T11:03:01;18.82;;;17.05;;
20861;SDS011;10591;52.532;13.348;2023-06-19T11:05:32;19.80;;;18.02;;
20861;SDS011;10591;52.532;13.348;2023-06-19T11:08:03;18.80;;;17.00;;
20861;SDS011;10591;52.532;13.348;2023-06-19T11:10:34;17.75;;;15.85;;
20861;SDS011;10591;52.532;13.348;2023-06-19T11:13:05;18.30;;;16.48;;
20861;SDS011;10591;52.532;13.348;2023-06-19T11:15:36;17.65;;;16.15;;
20861;SDS011;10591;52.532;13.348;2023-06-19T11:18:06;17.87;;;16.48;;
20861;SDS011;10591;52.532;13.348;2023-06-19T11:20:50;17.80;;;16.00;;
20861;SDS011;10591;52.532;13.348;2023-06-19T11:23:33;16.10;;;14.78;;
20861;SDS011;10591;52.532;13.348;2023-06-19T11:26:04;16.27;;;14.58;;
20861;SDS011;10591;52.532;13.348;2023-06-19T11:28:37;16.62;;;15.23;;
20861;SDS011;10591;52.532;13.348;2023-06-19T11:31:09;16.82;;;15.32;;
20861;SDS011;10591;52.532;13.348;2023-06-19T11:33:41;16.67;;;15.28;;
20861;SDS011;10591;52.532;13.348;2023-06-19T11:36:13;17.48;;;15.88;;
20861;SDS011;10591;52.532;13.348;2023-06-19T11:38:44;16.15;;;14.75;;
20861;SDS011;10591;52.532;13.348;2023-06-19T11:41:24;15.30;;;14.00;;
20861;SDS011;10591;52.532;13.348;2023-06-19T11:43:58;16.25;;;14.95;;
20861;SDS011;10591;52.532;13.348;2023-06-19T11:46:32;17.00;;;15.30;;
20861;SDS011;10591;52.532;13.348;2023-06-19T11:49:12;16.45;;;14.95;;
20861;SDS011;10591;52.532;13.348;2023-06-19T11:51:49;15.65;;;14.35;;
20861;SDS011;10591;52.532;13.348;2023-06-19T11:54:19;16.97;;;15.58;;
20861;SDS011;10591;52.532;13.348;2023-06-19T11:56:50;15.98;;;14.50;;
20861;SDS011;10591;52.532;13.348;2023-06-19T11:59:23;15.53;;;14.13;;
20861;SDS011;10591;52.532;13.348;2023-06-19T12:01:54;15.80;;;14.40;;
20861;SDS011;10591;52.532;13.348;2023-06-19T12:04:27;16.40;;;14.90;;
20861;SDS011;10591;52.532;13.348;2023-06-19T12:06:58;16.73;;;15.18;;
20861;SDS011;10591;52.532;13.348;2023-06-19T12:09:29;15.68;;;14.38;;
20861;SDS011;10591;52.532;13.348;2023-06-19T12:12:03;15.10;;;13.85;;
20861;SDS011;10591;52.532;13.348;2023-06-19T12:14:35;14.93;;;13.72;;
20861;SDS011;10591;52.532;13.348;2023-06-19T12:17:06;14.58;;;13.10;;
20861;SDS011;10591;52.532;13.348;2023-06-19T12:19:37;16.52;;;14.95;;
20861;SDS011;10591;52.532;13.348;2023-06-19T12:22:08;14.60;;;13.28;;
20861;SDS011;10591;52.532;13.348;2023-06-19T12:24:38;14.55;;;13.18;;
20861;SDS011;10591;52.532;13.348;2023-06-19T12:27:09;15.88;;;14.50;;
20861;SDS011;10591;52.532;13.348;2023-06-19T12:29:40;15.18;;;13.68;;
20861;SDS011;10591;52.532;13.348;2023-06-19T12:32:11;14.43;;;13.13;;
20861;SDS011;10591;52.532;13.348;2023-06-19T12:34:41;15.13;;;13.78;;
20861;SDS011;10591;52.532;13.348;2023-06-19T12:37:14;14.83;;;13.40;;
20861;SDS011;10591;52.532;13.348;2023-06-19T12:39:52;13.93;;;12.73;;
20861;SDS011;10591;52.532;13.348;2023-06-19T12:42:19;14.33;;;12.93;;
20861;SDS011;10591;52.532;13.348;2023-06-19T12:44:50;13.60;;;12.50;;
20861;SDS011;10591;52.532;13.348;2023-06-19T12:47:20;14.33;;;12.98;;
20861;SDS011;10591;52.532;13.348;2023-06-19T12:49:53;14.47;;;13.18;;
20861;SDS011;10591;52.532;13.348;2023-06-19T12:52:24;12.82;;;11.53;;
20861;SDS011;10591;52.532;13.348;2023-06-19T12:54:54;13.83;;;12.30;;
20861;SDS011;10591;52.532;13.348;2023-06-19T12:57:25;13.50;;;12.18;;
20861;SDS011;10591;52.532;13.348;2023-06-19T12:59:55;13.08;;;11.95;;
20861;SDS011;10591;52.532;13.348;2023-06-19T13:02:33;12.60;;;11.60;;
20861;SDS011;10591;52.532;13.348;2023-06-19T13:04:59;14.80;;;12.63;;
20861;SDS011;10591;52.532;13.348;2023-06-19T13:07:31;13.65;;;12.18;;
20861;SDS011;10591;52.532;13.348;2023-06-19T13:10:03;14.25;;;12.85;;
20861;SDS011;10591;52.532;13.348;2023-06-19T13:12:35;15.50;;;13.40;;
20861;SDS011;10591;52.532;13.348;2023-06-19T13:15:09;14.10;;;12.68;;
20861;SDS011;10591;52.532;13.348;2023-06-19T13:17:40;14.00;;;12.60;;
20861;SDS011;10591;52.532;13.348;2023-06-19T13:20:11;17.07;;;13.25;;
20861;SDS011;10591;52.532;13.348;2023-06-19T13:22:44;13.45;;;12.35;;
20861;SDS011;10591;52.532;13.348;2023-06-19T13:25:14;14.30;;;12.90;;
20861;SDS011;10591;52.532;13.348;2023-06-19T13:27:45;15.30;;;13.90;;
20861;SDS011;10591;52.532;13.348;2023-06-19T13:30:16;15.32;;;13.85;;
20861;SDS011;10591;52.532;13.348;2023-06-19T13:32:47;13.45;;;12.25;;
20861;SDS011;10591;52.532;13.348;2023-06-19T13:35:17;14.03;;;12.82;;
20861;SDS011;10591;52.532;13.348;2023-06-19T13:37:50;14.05;;;12.85;;
20861;SDS011;10591;52.532;13.348;2023-06-19T13:40:20;14.58;;;13.32;;
20861;SDS011;10591;52.532;13.348;2023-06-19T13:42:52;15.28;;;13.83;;
20861;SDS011;10591;52.532;13.348;2023-06-19T13:45:23;16.20;;;14.60;;
20861;SDS011;10591;52.532;13.348;2023-06-19T13:47:54;17.05;;;15.20;;
20861;SDS011;10591;52.532;13.348;2023-06-19T13:50:25;16.20;;;14.78;;
20861;SDS011;10591;52.532;13.348;2023-06-19T13:52:56;16.27;;;14.78;;
20861;SDS011;10591;52.532;13.348;2023-06-19T13:55:27;16.02;;;14.35;;
20861;SDS011;10591;52.532;13.348;2023-06-19T13:57:58;16.30;;;14.80;;
20861;SDS011;10591;52.532;13.348;2023-06-19T14:00:29;16.60;;;15.10;;
20861;SDS011;10591;52.532;13.348;2023-06-19T14:03:00;16.82;;;15.23;;
20861;SDS011;10591;52.532;13.348;2023-06-19T14:05:33;16.05;;;14.55;;
20861;SDS011;10591;52.532;13.348;2023-06-19T14:08:05;16.42;;;14.93;;
20861;SDS011;10591;52.532;13.348;2023-06-19T14:10:37;16.62;;;15.13;;
20861;SDS011;10591;52.532;13.348;2023-06-19T14:13:09;16.62;;;14.85;;
20861;SDS011;10591;52.532;13.348;2023-06-19T14:15:41;16.97;;;14.90;;
20861;SDS011;10591;52.532;13.348;2023-06-19T14:18:13;18.57;;;15.83;;
20861;SDS011;10591;52.532;13.348;2023-06-19T14:20:43;16.48;;;14.87;;
20861;SDS011;10591;52.532;13.348;2023-06-19T14:23:14;17.82;;;16.23;;
20861;SDS011;10591;52.532;13.348;2023-06-19T14:25:45;17.02;;;15.32;;
20861;SDS011;10591;52.532;13.348;2023-06-19T14:28:17;17.90;;;16.20;;
20861;SDS011;10591;52.532;13.348;2023-06-19T14:30:49;18.15;;;16.17;;
20861;SDS011;10591;52.532;13.348;2023-06-19T14:33:20;19.73;;;16.67;;
20861;SDS011;10591;52.532;13.348;2023-06-19T14:35:52;25.00;;;17.80;;
20861;SDS011;10591;52.532;13.348;2023-06-19T14:38:23;18.60;;;16.52;;